Milford, Utah
Current Conditions -  °F | °C
As of 3:52 AM on Thursday 23 Oct 2014 (Local Time) from KMLF Reporting Station
Clear Clear  
Wind Chill: 31°   Ceiling: Unl
Heat Index: 36°   Visibility: 10mi
Dew Point: 27°   Wind: 6mph
Humidity: 70%   Direction: 180°S
Pressure: 30.18"   Gusts: NA
Location:  38.4°N, 113.01°W
Report Text: KMLF 230952Z AUTO 18005KT 10SM CLR 02/M03 A3018 RMK AO2 SLP192 T00221028 TSNO
Loading
Personal Weather Stations






























Interactive Weather Map New forecast layout! Learn more

10-Day Weather Forecast

Advertisements
Track Severe Weather on mobile